sensor_id;sensor_type;location;lat;lon;timestamp;P1;durP1;ratioP1;P2;durP2;ratioP2
14171;SDS011;7165;52.388;4.928;2022-11-15T00:00:10;59.83;;;41.43;;
14171;SDS011;7165;52.388;4.928;2022-11-15T00:02:37;55.23;;;38.87;;
14171;SDS011;7165;52.388;4.928;2022-11-15T00:05:05;56.27;;;40.63;;
14171;SDS011;7165;52.388;4.928;2022-11-15T00:07:32;53.33;;;39.47;;
14171;SDS011;7165;52.388;4.928;2022-11-15T00:09:58;53.27;;;38.37;;
14171;SDS011;7165;52.388;4.928;2022-11-15T00:12:26;54.80;;;39.07;;
14171;SDS011;7165;52.388;4.928;2022-11-15T00:14:53;51.40;;;38.93;;
14171;SDS011;7165;52.388;4.928;2022-11-15T00:17:19;54.03;;;39.57;;
14171;SDS011;7165;52.388;4.928;2022-11-15T00:19:46;52.67;;;41.30;;
14171;SDS011;7165;52.388;4.928;2022-11-15T00:22:15;53.60;;;37.63;;
14171;SDS011;7165;52.388;4.928;2022-11-15T00:24:42;56.20;;;41.17;;
14171;SDS011;7165;52.388;4.928;2022-11-15T00:27:08;61.43;;;41.23;;
14171;SDS011;7165;52.388;4.928;2022-11-15T00:29:35;57.13;;;39.23;;
14171;SDS011;7165;52.388;4.928;2022-11-15T00:32:03;54.87;;;40.37;;
14171;SDS011;7165;52.388;4.928;2022-11-15T00:34:30;55.03;;;40.13;;
14171;SDS011;7165;52.388;4.928;2022-11-15T00:36:57;55.70;;;40.07;;
14171;SDS011;7165;52.388;4.928;2022-11-15T00:39:24;55.47;;;39.03;;
14171;SDS011;7165;52.388;4.928;2022-11-15T00:41:51;54.97;;;40.87;;
14171;SDS011;7165;52.388;4.928;2022-11-15T00:44:18;54.87;;;40.33;;
14171;SDS011;7165;52.388;4.928;2022-11-15T00:46:44;57.47;;;40.33;;
14171;SDS011;7165;52.388;4.928;2022-11-15T00:49:11;56.13;;;40.23;;
14171;SDS011;7165;52.388;4.928;2022-11-15T00:51:38;53.83;;;39.53;;
14171;SDS011;7165;52.388;4.928;2022-11-15T00:54:04;57.30;;;38.43;;
14171;SDS011;7165;52.388;4.928;2022-11-15T00:56:32;53.90;;;38.53;;
14171;SDS011;7165;52.388;4.928;2022-11-15T00:58:59;50.57;;;37.53;;
14171;SDS011;7165;52.388;4.928;2022-11-15T01:01:26;62.50;;;40.87;;
14171;SDS011;7165;52.388;4.928;2022-11-15T01:03:52;54.43;;;37.30;;
14171;SDS011;7165;52.388;4.928;2022-11-15T01:06:19;55.67;;;39.50;;
14171;SDS011;7165;52.388;4.928;2022-11-15T01:08:46;58.33;;;37.53;;
14171;SDS011;7165;52.388;4.928;2022-11-15T01:11:12;57.93;;;40.20;;
14171;SDS011;7165;52.388;4.928;2022-11-15T01:13:40;58.77;;;40.87;;
14171;SDS011;7165;52.388;4.928;2022-11-15T01:16:07;56.40;;;38.60;;
14171;SDS011;7165;52.388;4.928;2022-11-15T01:18:35;56.80;;;37.93;;
14171;SDS011;7165;52.388;4.928;2022-11-15T01:21:04;52.93;;;37.73;;
14171;SDS011;7165;52.388;4.928;2022-11-15T01:23:32;56.20;;;38.90;;
14171;SDS011;7165;52.388;4.928;2022-11-15T01:25:59;65.20;;;40.93;;
14171;SDS011;7165;52.388;4.928;2022-11-15T01:28:28;57.10;;;37.20;;
14171;SDS011;7165;52.388;4.928;2022-11-15T01:30:58;57.40;;;39.30;;
14171;SDS011;7165;52.388;4.928;2022-11-15T01:33:25;58.07;;;39.13;;
14171;SDS011;7165;52.388;4.928;2022-11-15T01:35:52;60.90;;;37.30;;
14171;SDS011;7165;52.388;4.928;2022-11-15T01:38:18;54.93;;;38.97;;
14171;SDS011;7165;52.388;4.928;2022-11-15T01:40:45;65.50;;;40.13;;
14171;SDS011;7165;52.388;4.928;2022-11-15T01:43:21;60.30;;;39.33;;
14171;SDS011;7165;52.388;4.928;2022-11-15T01:45:50;57.83;;;39.83;;
14171;SDS011;7165;52.388;4.928;2022-11-15T01:48:21;54.33;;;39.10;;
14171;SDS011;7165;52.388;4.928;2022-11-15T01:50:50;59.10;;;38.45;;
14171;SDS011;7165;52.388;4.928;2022-11-15T01:53:17;58.83;;;39.85;;
14171;SDS011;7165;52.388;4.928;2022-11-15T01:55:46;59.67;;;40.23;;
14171;SDS011;7165;52.388;4.928;2022-11-15T01:58:13;58.37;;;37.80;;
14171;SDS011;7165;52.388;4.928;2022-11-15T02:00:40;60.37;;;39.93;;
14171;SDS011;7165;52.388;4.928;2022-11-15T02:03:06;63.63;;;40.88;;
14171;SDS011;7165;52.388;4.928;2022-11-15T02:05:35;61.33;;;39.40;;
14171;SDS011;7165;52.388;4.928;2022-11-15T02:08:03;65.73;;;40.33;;
14171;SDS011;7165;52.388;4.928;2022-11-15T02:10:30;63.87;;;40.57;;
14171;SDS011;7165;52.388;4.928;2022-11-15T02:12:57;64.57;;;41.05;;
14171;SDS011;7165;52.388;4.928;2022-11-15T02:15:26;63.33;;;40.30;;
14171;SDS011;7165;52.388;4.928;2022-11-15T02:18:04;61.87;;;37.80;;
14171;SDS011;7165;52.388;4.928;2022-11-15T02:20:47;55.17;;;38.30;;
14171;SDS011;7165;52.388;4.928;2022-11-15T02:23:33;62.38;;;39.83;;
14171;SDS011;7165;52.388;4.928;2022-11-15T02:29:20;67.27;;;42.00;;
14171;SDS011;7165;52.388;4.928;2022-11-15T02:31:57;71.00;;;44.13;;
14171;SDS011;7165;52.388;4.928;2022-11-15T02:34:33;68.47;;;42.43;;
14171;SDS011;7165;52.388;4.928;2022-11-15T02:37:07;70.37;;;44.50;;
14171;SDS011;7165;52.388;4.928;2022-11-15T02:39:41;72.47;;;43.43;;
14171;SDS011;7165;52.388;4.928;2022-11-15T02:42:16;64.95;;;42.03;;
14171;SDS011;7165;52.388;4.928;2022-11-15T02:45:05;65.67;;;43.90;;
14171;SDS011;7165;52.388;4.928;2022-11-15T02:47:37;74.63;;;44.07;;
14171;SDS011;7165;52.388;4.928;2022-11-15T02:50:10;74.10;;;43.85;;
14171;SDS011;7165;52.388;4.928;2022-11-15T02:52:38;80.00;;;44.83;;
14171;SDS011;7165;52.388;4.928;2022-11-15T02:55:24;69.40;;;44.08;;
14171;SDS011;7165;52.388;4.928;2022-11-15T02:57:55;75.82;;;45.47;;
14171;SDS011;7165;52.388;4.928;2022-11-15T03:00:29;69.43;;;43.35;;
14171;SDS011;7165;52.388;4.928;2022-11-15T03:03:08;80.53;;;46.65;;
14171;SDS011;7165;52.388;4.928;2022-11-15T03:05:53;71.60;;;45.60;;
14171;SDS011;7165;52.388;4.928;2022-11-15T03:08:31;76.80;;;45.17;;
14171;SDS011;7165;52.388;4.928;2022-11-15T03:11:03;72.13;;;45.00;;
14171;SDS011;7165;52.388;4.928;2022-11-15T03:13:36;75.70;;;47.22;;
14171;SDS011;7165;52.388;4.928;2022-11-15T03:16:06;73.30;;;45.42;;
14171;SDS011;7165;52.388;4.928;2022-11-15T03:18:40;73.00;;;46.40;;
14171;SDS011;7165;52.388;4.928;2022-11-15T03:21:09;73.00;;;47.70;;
14171;SDS011;7165;52.388;4.928;2022-11-15T03:23:38;70.15;;;45.88;;
14171;SDS011;7165;52.388;4.928;2022-11-15T03:26:07;77.03;;;46.08;;
14171;SDS011;7165;52.388;4.928;2022-11-15T03:28:36;88.90;;;51.00;;
14171;SDS011;7165;52.388;4.928;2022-11-15T03:31:05;77.32;;;46.42;;
14171;SDS011;7165;52.388;4.928;2022-11-15T03:33:48;76.30;;;47.75;;
14171;SDS011;7165;52.388;4.928;2022-11-15T03:36:17;75.70;;;47.67;;
14171;SDS011;7165;52.388;4.928;2022-11-15T03:38:44;81.93;;;48.60;;
14171;SDS011;7165;52.388;4.928;2022-11-15T03:41:13;75.75;;;47.30;;
14171;SDS011;7165;52.388;4.928;2022-11-15T03:43:47;77.57;;;48.92;;
14171;SDS011;7165;52.388;4.928;2022-11-15T03:46:19;79.03;;;49.20;;
14171;SDS011;7165;52.388;4.928;2022-11-15T03:48:53;83.13;;;48.85;;
14171;SDS011;7165;52.388;4.928;2022-11-15T03:51:26;77.43;;;49.22;;
14171;SDS011;7165;52.388;4.928;2022-11-15T03:53:53;78.38;;;49.30;;
14171;SDS011;7165;52.388;4.928;2022-11-15T03:56:19;75.97;;;46.53;;
14171;SDS011;7165;52.388;4.928;2022-11-15T03:58:46;66.30;;;44.47;;
14171;SDS011;7165;52.388;4.928;2022-11-15T04:01:12;75.43;;;47.63;;
14171;SDS011;7165;52.388;4.928;2022-11-15T04:03:39;73.00;;;48.85;;
14171;SDS011;7165;52.388;4.928;2022-11-15T04:06:07;73.68;;;46.47;;
14171;SDS011;7165;52.388;4.928;2022-11-15T04:08:34;64.43;;;46.70;;
14171;SDS011;7165;52.388;4.928;2022-11-15T04:11:00;65.97;;;46.35;;
14171;SDS011;7165;52.388;4.928;2022-11-15T04:13:27;69.03;;;46.78;;
14171;SDS011;7165;52.388;4.928;2022-11-15T04:15:54;66.00;;;45.08;;
14171;SDS011;7165;52.388;4.928;2022-11-15T04:18:20;70.20;;;45.08;;
14171;SDS011;7165;52.388;4.928;2022-11-15T04:20:47;65.57;;;44.42;;
14171;SDS011;7165;52.388;4.928;2022-11-15T04:23:33;67.15;;;45.22;;
14171;SDS011;7165;52.388;4.928;2022-11-15T04:26:17;62.55;;;43.22;;
14171;SDS011;7165;52.388;4.928;2022-11-15T04:28:46;65.20;;;41.55;;
14171;SDS011;7165;52.388;4.928;2022-11-15T04:31:27;59.45;;;41.30;;
14171;SDS011;7165;52.388;4.928;2022-11-15T04:33:54;65.10;;;44.55;;
14171;SDS011;7165;52.388;4.928;2022-11-15T04:36:21;58.90;;;41.50;;
14171;SDS011;7165;52.388;4.928;2022-11-15T04:39:07;59.90;;;43.72;;
14171;SDS011;7165;52.388;4.928;2022-11-15T04:41:34;57.42;;;41.72;;
14171;SDS011;7165;52.388;4.928;2022-11-15T04:44:00;54.30;;;40.53;;
14171;SDS011;7165;52.388;4.928;2022-11-15T04:46:27;60.15;;;43.63;;
14171;SDS011;7165;52.388;4.928;2022-11-15T04:48:54;53.00;;;41.03;;
14171;SDS011;7165;52.388;4.928;2022-11-15T04:51:20;51.67;;;41.50;;
14171;SDS011;7165;52.388;4.928;2022-11-15T04:53:47;54.72;;;41.33;;
14171;SDS011;7165;52.388;4.928;2022-11-15T04:56:15;54.28;;;40.83;;
14171;SDS011;7165;52.388;4.928;2022-11-15T04:58:42;47.75;;;39.00;;
14171;SDS011;7165;52.388;4.928;2022-11-15T05:01:08;51.08;;;40.83;;
14171;SDS011;7165;52.388;4.928;2022-11-15T05:03:37;53.72;;;40.17;;
14171;SDS011;7165;52.388;4.928;2022-11-15T05:06:21;54.15;;;39.08;;
14171;SDS011;7165;52.388;4.928;2022-11-15T05:08:48;49.58;;;37.05;;
14171;SDS011;7165;52.388;4.928;2022-11-15T05:11:16;47.35;;;37.22;;
14171;SDS011;7165;52.388;4.928;2022-11-15T05:13:42;44.88;;;35.95;;
14171;SDS011;7165;52.388;4.928;2022-11-15T05:16:09;42.83;;;36.92;;
14171;SDS011;7165;52.388;4.928;2022-11-15T05:18:36;44.17;;;35.63;;
14171;SDS011;7165;52.388;4.928;2022-11-15T05:21:06;46.92;;;36.60;;
14171;SDS011;7165;52.388;4.928;2022-11-15T05:23:33;44.03;;;37.13;;
14171;SDS011;7165;52.388;4.928;2022-11-15T05:26:00;42.17;;;33.65;;
14171;SDS011;7165;52.388;4.928;2022-11-15T05:28:29;39.60;;;35.33;;
14171;SDS011;7165;52.388;4.928;2022-11-15T05:31:00;41.05;;;35.28;;
14171;SDS011;7165;52.388;4.928;2022-11-15T05:33:27;40.33;;;34.00;;
14171;SDS011;7165;52.388;4.928;2022-11-15T05:35:54;44.05;;;34.50;;
14171;SDS011;7165;52.388;4.928;2022-11-15T05:38:25;39.70;;;35.45;;
14171;SDS011;7165;52.388;4.928;2022-11-15T05:40:52;39.67;;;34.15;;
14171;SDS011;7165;52.388;4.928;2022-11-15T05:43:19;40.45;;;32.85;;
14171;SDS011;7165;52.388;4.928;2022-11-15T05:45:48;37.70;;;33.60;;
14171;SDS011;7165;52.388;4.928;2022-11-15T05:48:15;47.60;;;35.78;;
14171;SDS011;7165;52.388;4.928;2022-11-15T05:50:42;37.72;;;31.83;;
14171;SDS011;7165;52.388;4.928;2022-11-15T05:53:11;42.55;;;32.90;;
14171;SDS011;7165;52.388;4.928;2022-11-15T05:55:41;38.67;;;31.27;;
14171;SDS011;7165;52.388;4.928;2022-11-15T05:58:08;34.50;;;30.60;;
14171;SDS011;7165;52.388;4.928;2022-11-15T06:00:35;36.25;;;31.92;;
14171;SDS011;7165;52.388;4.928;2022-11-15T06:03:03;35.10;;;30.73;;
14171;SDS011;7165;52.388;4.928;2022-11-15T06:05:29;36.78;;;31.23;;
14171;SDS011;7165;52.388;4.928;2022-11-15T06:07:57;40.55;;;32.55;;
14171;SDS011;7165;52.388;4.928;2022-11-15T06:10:23;37.80;;;31.73;;
14171;SDS011;7165;52.388;4.928;2022-11-15T06:12:55;35.90;;;30.90;;
14171;SDS011;7165;52.388;4.928;2022-11-15T06:15:22;33.45;;;29.73;;
14171;SDS011;7165;52.388;4.928;2022-11-15T06:17:49;35.08;;;31.40;;
14171;SDS011;7165;52.388;4.928;2022-11-15T06:20:18;35.13;;;31.65;;
14171;SDS011;7165;52.388;4.928;2022-11-15T06:22:44;35.22;;;30.33;;
14171;SDS011;7165;52.388;4.928;2022-11-15T06:25:11;38.30;;;31.80;;
14171;SDS011;7165;52.388;4.928;2022-11-15T06:27:38;34.67;;;31.02;;
14171;SDS011;7165;52.388;4.928;2022-11-15T06:30:05;37.72;;;31.42;;
14171;SDS011;7165;52.388;4.928;2022-11-15T06:32:32;34.70;;;30.98;;
14171;SDS011;7165;52.388;4.928;2022-11-15T06:34:59;35.28;;;30.38;;
14171;SDS011;7165;52.388;4.928;2022-11-15T06:37:27;32.25;;;28.83;;
14171;SDS011;7165;52.388;4.928;2022-11-15T06:39:53;32.22;;;28.63;;
14171;SDS011;7165;52.388;4.928;2022-11-15T06:42:20;32.05;;;28.85;;
14171;SDS011;7165;52.388;4.928;2022-11-15T06:44:46;33.42;;;29.90;;
14171;SDS011;7165;52.388;4.928;2022-11-15T06:47:13;31.17;;;27.92;;
14171;SDS011;7165;52.388;4.928;2022-11-15T06:49:40;32.28;;;28.63;;
14171;SDS011;7165;52.388;4.928;2022-11-15T06:52:06;33.15;;;28.70;;
14171;SDS011;7165;52.388;4.928;2022-11-15T06:54:34;32.10;;;28.85;;
14171;SDS011;7165;52.388;4.928;2022-11-15T06:57:01;31.67;;;27.85;;
14171;SDS011;7165;52.388;4.928;2022-11-15T06:59:29;31.17;;;28.00;;
14171;SDS011;7165;52.388;4.928;2022-11-15T07:01:56;33.25;;;29.70;;
14171;SDS011;7165;52.388;4.928;2022-11-15T07:04:23;32.00;;;28.63;;
14171;SDS011;7165;52.388;4.928;2022-11-15T07:06:50;31.15;;;27.85;;
14171;SDS011;7165;52.388;4.928;2022-11-15T07:09:16;30.77;;;27.33;;
14171;SDS011;7165;52.388;4.928;2022-11-15T07:11:44;29.42;;;26.50;;
14171;SDS011;7165;52.388;4.928;2022-11-15T07:14:11;30.75;;;26.80;;
14171;SDS011;7165;52.388;4.928;2022-11-15T07:16:38;32.08;;;26.92;;
14171;SDS011;7165;52.388;4.928;2022-11-15T07:19:04;28.10;;;25.13;;
14171;SDS011;7165;52.388;4.928;2022-11-15T07:21:32;27.80;;;24.80;;
14171;SDS011;7165;52.388;4.928;2022-11-15T07:23:59;30.45;;;27.17;;
14171;SDS011;7165;52.388;4.928;2022-11-15T07:26:25;27.95;;;24.63;;
14171;SDS011;7165;52.388;4.928;2022-11-15T07:28:53;28.08;;;23.95;;
14171;SDS011;7165;52.388;4.928;2022-11-15T07:31:20;25.98;;;23.17;;
14171;SDS011;7165;52.388;4.928;2022-11-15T07:33:47;25.95;;;23.30;;
14171;SDS011;7165;52.388;4.928;2022-11-15T07:36:14;24.05;;;21.23;;
14171;SDS011;7165;52.388;4.928;2022-11-15T07:38:40;27.17;;;23.65;;
14171;SDS011;7165;52.388;4.928;2022-11-15T07:41:07;24.73;;;22.05;;
14171;SDS011;7165;52.388;4.928;2022-11-15T07:43:33;25.13;;;22.42;;
14171;SDS011;7165;52.388;4.928;2022-11-15T07:46:05;26.50;;;22.05;;
14171;SDS011;7165;52.388;4.928;2022-11-15T07:48:34;26.98;;;20.83;;
14171;SDS011;7165;52.388;4.928;2022-11-15T07:51:01;28.42;;;21.60;;
14171;SDS011;7165;52.388;4.928;2022-11-15T07:53:27;30.60;;;22.13;;
14171;SDS011;7165;52.388;4.928;2022-11-15T07:55:54;24.42;;;21.73;;
14171;SDS011;7165;52.388;4.928;2022-11-15T07:58:21;24.25;;;21.75;;
14171;SDS011;7165;52.388;4.928;2022-11-15T08:00:47;26.25;;;22.02;;
14171;SDS011;7165;52.388;4.928;2022-11-15T08:03:16;24.58;;;22.02;;
14171;SDS011;7165;52.388;4.928;2022-11-15T08:05:43;25.33;;;21.23;;
14171;SDS011;7165;52.388;4.928;2022-11-15T08:08:16;24.70;;;21.48;;
14171;SDS011;7165;52.388;4.928;2022-11-15T08:10:42;22.98;;;20.33;;
14171;SDS011;7165;52.388;4.928;2022-11-15T08:13:10;22.52;;;19.85;;
14171;SDS011;7165;52.388;4.928;2022-11-15T08:15:37;28.55;;;18.67;;
14171;SDS011;7165;52.388;4.928;2022-11-15T08:18:05;20.23;;;17.13;;
14171;SDS011;7165;52.388;4.928;2022-11-15T08:20:34;21.98;;;18.52;;
14171;SDS011;7165;52.388;4.928;2022-11-15T08:23:01;20.15;;;17.90;;
14171;SDS011;7165;52.388;4.928;2022-11-15T08:25:30;24.75;;;19.38;;
14171;SDS011;7165;52.388;4.928;2022-11-15T08:27:59;23.85;;;19.60;;
14171;SDS011;7165;52.388;4.928;2022-11-15T08:30:27;22.50;;;18.40;;
14171;SDS011;7165;52.388;4.928;2022-11-15T08:32:55;21.85;;;19.02;;
14171;SDS011;7165;52.388;4.928;2022-11-15T08:35:24;20.63;;;18.55;;
14171;SDS011;7165;52.388;4.928;2022-11-15T08:37:53;20.60;;;18.38;;
14171;SDS011;7165;52.388;4.928;2022-11-15T08:40:19;21.67;;;17.35;;
14171;SDS011;7165;52.388;4.928;2022-11-15T08:42:47;21.20;;;17.83;;
14171;SDS011;7165;52.388;4.928;2022-11-15T08:45:14;23.17;;;18.25;;
14171;SDS011;7165;52.388;4.928;2022-11-15T08:47:41;21.65;;;18.00;;
14171;SDS011;7165;52.388;4.928;2022-11-15T08:50:08;19.88;;;17.83;;
14171;SDS011;7165;52.388;4.928;2022-11-15T08:52:35;18.35;;;16.45;;
14171;SDS011;7165;52.388;4.928;2022-11-15T08:55:03;20.77;;;17.52;;
14171;SDS011;7165;52.388;4.928;2022-11-15T08:57:30;18.48;;;16.38;;
14171;SDS011;7165;52.388;4.928;2022-11-15T08:59:57;22.80;;;17.85;;
14171;SDS011;7165;52.388;4.928;2022-11-15T09:02:24;18.92;;;15.57;;
14171;SDS011;7165;52.388;4.928;2022-11-15T09:04:51;18.52;;;14.18;;
14171;SDS011;7165;52.388;4.928;2022-11-15T09:07:17;16.13;;;14.40;;
14171;SDS011;7165;52.388;4.928;2022-11-15T09:09:44;16.95;;;14.38;;
14171;SDS011;7165;52.388;4.928;2022-11-15T09:12:12;17.02;;;14.15;;
14171;SDS011;7165;52.388;4.928;2022-11-15T09:14:39;14.55;;;12.68;;
14171;SDS011;7165;52.388;4.928;2022-11-15T09:17:07;16.08;;;13.20;;
14171;SDS011;7165;52.388;4.928;2022-11-15T09:19:34;13.60;;;12.20;;
14171;SDS011;7165;52.388;4.928;2022-11-15T09:22:01;13.55;;;12.18;;
14171;SDS011;7165;52.388;4.928;2022-11-15T09:24:31;14.98;;;11.85;;
14171;SDS011;7165;52.388;4.928;2022-11-15T09:26:57;12.85;;;11.27;;
14171;SDS011;7165;52.388;4.928;2022-11-15T09:29:26;14.45;;;12.95;;
14171;SDS011;7165;52.388;4.928;2022-11-15T09:31:52;16.05;;;11.93;;
14171;SDS011;7165;52.388;4.928;2022-11-15T09:34:19;12.60;;;10.32;;
14171;SDS011;7165;52.388;4.928;2022-11-15T09:36:46;12.63;;;11.32;;
14171;SDS011;7165;52.388;4.928;2022-11-15T09:39:13;11.98;;;10.57;;
14171;SDS011;7165;52.388;4.928;2022-11-15T09:41:44;13.45;;;10.52;;
14171;SDS011;7165;52.388;4.928;2022-11-15T09:44:21;11.13;;;9.93;;
14171;SDS011;7165;52.388;4.928;2022-11-15T09:47:02;11.38;;;10.15;;
14171;SDS011;7165;52.388;4.928;2022-11-15T09:49:44;12.48;;;10.85;;
14171;SDS011;7165;52.388;4.928;2022-11-15T09:52:12;12.95;;;11.75;;
14171;SDS011;7165;52.388;4.928;2022-11-15T09:54:40;12.93;;;11.32;;
14171;SDS011;7165;52.388;4.928;2022-11-15T09:57:12;13.10;;;10.73;;
14171;SDS011;7165;52.388;4.928;2022-11-15T09:59:49;12.32;;;10.25;;
14171;SDS011;7165;52.388;4.928;2022-11-15T10:02:31;12.68;;;10.27;;
14171;SDS011;7165;52.388;4.928;2022-11-15T10:05:07;11.07;;;9.98;;
14171;SDS011;7165;52.388;4.928;2022-11-15T10:07:40;12.15;;;9.52;;
14171;SDS011;7165;52.388;4.928;2022-11-15T10:10:15;10.18;;;9.18;;
14171;SDS011;7165;52.388;4.928;2022-11-15T10:12:51;11.73;;;10.57;;
14171;SDS011;7165;52.388;4.928;2022-11-15T10:15:20;11.35;;;9.15;;
14171;SDS011;7165;52.388;4.928;2022-11-15T10:18:01;10.32;;;9.25;;
14171;SDS011;7165;52.388;4.928;2022-11-15T10:20:42;10.05;;;8.98;;
14171;SDS011;7165;52.388;4.928;2022-11-15T10:23:14;10.50;;;8.85;;
14171;SDS011;7165;52.388;4.928;2022-11-15T10:25:42;10.90;;;8.70;;
14171;SDS011;7165;52.388;4.928;2022-11-15T10:28:10;10.30;;;9.05;;
14171;SDS011;7165;52.388;4.928;2022-11-15T10:30:42;12.57;;;8.70;;
14171;SDS011;7165;52.388;4.928;2022-11-15T10:38:57;8.85;;;7.95;;
14171;SDS011;7165;52.388;4.928;2022-11-15T10:41:32;9.05;;;8.02;;
14171;SDS011;7165;52.388;4.928;2022-11-15T10:44:07;8.45;;;7.57;;
14171;SDS011;7165;52.388;4.928;2022-11-15T10:46:47;9.20;;;7.95;;
14171;SDS011;7165;52.388;4.928;2022-11-15T10:49:30;10.30;;;7.53;;
14171;SDS011;7165;52.388;4.928;2022-11-15T10:51:58;8.45;;;7.65;;
14171;SDS011;7165;52.388;4.928;2022-11-15T10:54:30;8.55;;;7.15;;
14171;SDS011;7165;52.388;4.928;2022-11-15T10:57:03;8.75;;;7.50;;
14171;SDS011;7165;52.388;4.928;2022-11-15T10:59:32;7.82;;;6.53;;
14171;SDS011;7165;52.388;4.928;2022-11-15T11:02:20;7.63;;;6.82;;
14171;SDS011;7165;52.388;4.928;2022-11-15T11:04:59;10.02;;;6.85;;
14171;SDS011;7165;52.388;4.928;2022-11-15T11:07:28;11.02;;;6.28;;
14171;SDS011;7165;52.388;4.928;2022-11-15T11:09:56;7.18;;;6.30;;
14171;SDS011;7165;52.388;4.928;2022-11-15T11:12:28;9.00;;;6.00;;
14171;SDS011;7165;52.388;4.928;2022-11-15T11:14:57;10.43;;;6.30;;
14171;SDS011;7165;52.388;4.928;2022-11-15T11:17:29;9.10;;;6.13;;
14171;SDS011;7165;52.388;4.928;2022-11-15T11:20:10;7.20;;;5.88;;
14171;SDS011;7165;52.388;4.928;2022-11-15T11:22:50;10.90;;;6.60;;
14171;SDS011;7165;52.388;4.928;2022-11-15T11:25:30;6.85;;;5.70;;
14171;SDS011;7165;52.388;4.928;2022-11-15T11:28:08;6.50;;;5.28;;
14171;SDS011;7165;52.388;4.928;2022-11-15T11:30:49;11.02;;;5.70;;
14171;SDS011;7165;52.388;4.928;2022-11-15T11:33:26;12.38;;;5.85;;
14171;SDS011;7165;52.388;4.928;2022-11-15T11:35:59;5.75;;;5.00;;
14171;SDS011;7165;52.388;4.928;2022-11-15T11:38:38;6.72;;;5.30;;
14171;SDS011;7165;52.388;4.928;2022-11-15T11:41:15;6.90;;;4.85;;
14171;SDS011;7165;52.388;4.928;2022-11-15T11:43:52;10.07;;;6.13;;
14171;SDS011;7165;52.388;4.928;2022-11-15T11:49:16;5.13;;;4.50;;
14171;SDS011;7165;52.388;4.928;2022-11-15T11:51:49;7.07;;;4.60;;
14171;SDS011;7165;52.388;4.928;2022-11-15T11:54:21;6.82;;;5.38;;
14171;SDS011;7165;52.388;4.928;2022-11-15T11:56:52;7.63;;;6.45;;
14171;SDS011;7165;52.388;4.928;2022-11-15T11:59:25;6.15;;;5.45;;
14171;SDS011;7165;52.388;4.928;2022-11-15T12:01:57;6.40;;;4.60;;
14171;SDS011;7165;52.388;4.928;2022-11-15T12:04:30;6.50;;;4.70;;
14171;SDS011;7165;52.388;4.928;2022-11-15T12:07:03;7.07;;;4.40;;
14171;SDS011;7165;52.388;4.928;2022-11-15T12:09:39;9.75;;;4.10;;
14171;SDS011;7165;52.388;4.928;2022-11-15T12:12:11;5.50;;;4.15;;
14171;SDS011;7165;52.388;4.928;2022-11-15T12:14:44;5.40;;;3.72;;
14171;SDS011;7165;52.388;4.928;2022-11-15T12:17:14;6.68;;;3.53;;
14171;SDS011;7165;52.388;4.928;2022-11-15T12:19:46;8.75;;;4.28;;
14171;SDS011;7165;52.388;4.928;2022-11-15T12:22:18;6.05;;;3.97;;
14171;SDS011;7165;52.388;4.928;2022-11-15T12:24:50;6.60;;;3.97;;
14171;SDS011;7165;52.388;4.928;2022-11-15T12:27:25;4.65;;;2.83;;
14171;SDS011;7165;52.388;4.928;2022-11-15T12:29:58;5.45;;;3.90;;
14171;SDS011;7165;52.388;4.928;2022-11-15T12:32:30;9.02;;;3.70;;
14171;SDS011;7165;52.388;4.928;2022-11-15T12:35:01;3.33;;;2.50;;
14171;SDS011;7165;52.388;4.928;2022-11-15T12:40:23;5.65;;;2.50;;
14171;SDS011;7165;52.388;4.928;2022-11-15T12:43:05;4.03;;;2.75;;
14171;SDS011;7165;52.388;4.928;2022-11-15T12:45:51;4.95;;;2.70;;
14171;SDS011;7165;52.388;4.928;2022-11-15T12:57:27;2.75;;;2.55;;
14171;SDS011;7165;52.388;4.928;2022-11-15T12:59:56;3.35;;;2.10;;
14171;SDS011;7165;52.388;4.928;2022-11-15T13:02:26;4.65;;;2.90;;
14171;SDS011;7165;52.388;4.928;2022-11-15T13:05:20;10.05;;;3.88;;
14171;SDS011;7165;52.388;4.928;2022-11-15T13:08:07;6.35;;;2.95;;
14171;SDS011;7165;52.388;4.928;2022-11-15T13:10:34;3.85;;;2.45;;
14171;SDS011;7165;52.388;4.928;2022-11-15T13:13:01;3.55;;;2.35;;
14171;SDS011;7165;52.388;4.928;2022-11-15T13:15:36;4.47;;;2.45;;
14171;SDS011;7165;52.388;4.928;2022-11-15T13:21:21;2.75;;;2.53;;
14171;SDS011;7165;52.388;4.928;2022-11-15T13:24:12;7.50;;;2.70;;
14171;SDS011;7165;52.388;4.928;2022-11-15T13:26:41;4.18;;;2.58;;
14171;SDS011;7165;52.388;4.928;2022-11-15T13:29:15;3.22;;;2.25;;
14171;SDS011;7165;52.388;4.928;2022-11-15T13:31:43;6.18;;;2.40;;
14171;SDS011;7165;52.388;4.928;2022-11-15T13:34:19;4.13;;;2.42;;
14171;SDS011;7165;52.388;4.928;2022-11-15T13:36:53;2.28;;;1.80;;
14171;SDS011;7165;52.388;4.928;2022-11-15T13:39:27;5.45;;;2.58;;
14171;SDS011;7165;52.388;4.928;2022-11-15T13:41:55;2.20;;;2.03;;
14171;SDS011;7165;52.388;4.928;2022-11-15T13:44:23;4.18;;;2.42;;
14171;SDS011;7165;52.388;4.928;2022-11-15T13:47:00;5.45;;;2.30;;
14171;SDS011;7165;52.388;4.928;2022-11-15T13:49:29;2.95;;;2.20;;
14171;SDS011;7165;52.388;4.928;2022-11-15T13:51:57;4.70;;;2.13;;
14171;SDS011;7165;52.388;4.928;2022-11-15T13:54:27;7.57;;;2.47;;
14171;SDS011;7165;52.388;4.928;2022-11-15T13:56:58;5.70;;;2.83;;
14171;SDS011;7165;52.388;4.928;2022-11-15T13:59:27;5.85;;;3.00;;
14171;SDS011;7165;52.388;4.928;2022-11-15T14:01:57;3.15;;;2.22;;
14171;SDS011;7165;52.388;4.928;2022-11-15T14:04:27;4.70;;;3.10;;
14171;SDS011;7165;52.388;4.928;2022-11-15T14:06:58;4.43;;;1.90;;
14171;SDS011;7165;52.388;4.928;2022-11-15T14:09:36;9.27;;;4.75;;
14171;SDS011;7165;52.388;4.928;2022-11-15T14:14:49;9.18;;;3.75;;
14171;SDS011;7165;52.388;4.928;2022-11-15T14:17:19;4.60;;;2.95;;
14171;SDS011;7165;52.388;4.928;2022-11-15T14:19:48;5.60;;;3.20;;
14171;SDS011;7165;52.388;4.928;2022-11-15T14:22:17;7.28;;;2.97;;
14171;SDS011;7165;52.388;4.928;2022-11-15T14:25:03;5.80;;;2.42;;
14171;SDS011;7165;52.388;4.928;2022-11-15T14:27:41;4.43;;;2.30;;
14171;SDS011;7165;52.388;4.928;2022-11-15T14:30:12;2.70;;;2.45;;
14171;SDS011;7165;52.388;4.928;2022-11-15T14:32:42;2.95;;;2.38;;
14171;SDS011;7165;52.388;4.928;2022-11-15T14:35:12;3.50;;;2.33;;
14171;SDS011;7165;52.388;4.928;2022-11-15T14:37:41;2.75;;;2.10;;
14171;SDS011;7165;52.388;4.928;2022-11-15T14:40:11;3.50;;;2.92;;
14171;SDS011;7165;52.388;4.928;2022-11-15T14:42:40;4.13;;;3.00;;
14171;SDS011;7165;52.388;4.928;2022-11-15T14:45:09;2.67;;;2.40;;
14171;SDS011;7165;52.388;4.928;2022-11-15T14:47:38;6.28;;;3.15;;
14171;SDS011;7165;52.388;4.928;2022-11-15T14:50:05;10.45;;;3.30;;
14171;SDS011;7165;52.388;4.928;2022-11-15T14:52:32;3.05;;;2.75;;
14171;SDS011;7165;52.388;4.928;2022-11-15T14:55:00;5.68;;;3.25;;
14171;SDS011;7165;52.388;4.928;2022-11-15T14:57:30;7.35;;;3.05;;
14171;SDS011;7165;52.388;4.928;2022-11-15T14:59:56;6.05;;;3.38;;
14171;SDS011;7165;52.388;4.928;2022-11-15T15:02:24;4.65;;;3.33;;
14171;SDS011;7165;52.388;4.928;2022-11-15T15:04:52;4.07;;;2.72;;
14171;SDS011;7165;52.388;4.928;2022-11-15T15:07:20;6.78;;;3.42;;
14171;SDS011;7165;52.388;4.928;2022-11-15T15:09:46;8.35;;;3.90;;
14171;SDS011;7165;52.388;4.928;2022-11-15T15:12:14;4.32;;;3.13;;
14171;SDS011;7165;52.388;4.928;2022-11-15T15:14:44;9.10;;;4.25;;
14171;SDS011;7165;52.388;4.928;2022-11-15T15:17:11;4.32;;;2.78;;
14171;SDS011;7165;52.388;4.928;2022-11-15T15:19:38;5.35;;;4.47;;
14171;SDS011;7165;52.388;4.928;2022-11-15T15:22:05;8.55;;;3.55;;
14171;SDS011;7165;52.388;4.928;2022-11-15T15:24:35;5.90;;;3.85;;
14171;SDS011;7165;52.388;4.928;2022-11-15T15:27:01;5.25;;;3.70;;
14171;SDS011;7165;52.388;4.928;2022-11-15T15:29:28;4.85;;;3.67;;